createdAt,value
2018-02-23T00:00:46.236Z,82.57
2018-02-23T00:01:46.208Z,82.86
2018-02-23T00:02:46.178Z,82.76
2018-02-23T00:03:46.156Z,83.05
2018-02-23T00:04:46.141Z,82.86
2018-02-23T00:05:46.109Z,82.76
2018-02-23T00:06:46.088Z,82.39
2018-02-23T00:07:46.063Z,82.67
2018-02-23T00:08:46.044Z,82.48
2018-02-23T00:09:46.015Z,82.76
2018-02-23T00:10:45.995Z,82.10
2018-02-23T00:11:45.967Z,82.48
2018-02-23T00:12:45.948Z,81.82
2018-02-23T00:13:45.928Z,82.76
2018-02-23T00:14:45.899Z,83.14
2018-02-23T00:15:45.888Z,83.43
2018-02-23T00:16:45.862Z,83.81
2018-02-23T00:17:45.832Z,83.43
2018-02-23T00:18:45.808Z,83.24
2018-02-23T00:19:45.783Z,83.71
2018-02-23T00:20:45.761Z,83.05
2018-02-23T00:21:45.737Z,82.95
2018-02-23T00:22:45.724Z,83.05
2018-02-23T00:23:45.698Z,82.86
2018-02-23T00:24:45.680Z,82.57
2018-02-23T00:25:45.647Z,83.05
2018-02-23T00:26:45.627Z,82.29
2018-02-23T00:27:45.598Z,82.39
2018-02-23T00:28:45.580Z,82.39
2018-02-23T00:29:45.563Z,82.67
2018-02-23T00:30:45.531Z,82.29
2018-02-23T00:31:45.509Z,81.92
2018-02-23T00:32:45.493Z,82.01
2018-02-23T00:33:45.471Z,82.01
2018-02-23T00:34:45.439Z,82.20
2018-02-23T00:35:45.419Z,82.20
2018-02-23T00:36:45.454Z,82.29
2018-02-23T00:37:45.371Z,82.48
2018-02-23T00:38:45.346Z,82.20
2018-02-23T00:39:45.328Z,82.48
2018-02-23T00:40:45.297Z,82.95
2018-02-23T00:41:45.278Z,82.86
2018-02-23T00:42:45.261Z,82.67
2018-02-23T00:43:45.226Z,82.95
2018-02-23T00:44:45.219Z,83.24
2018-02-23T00:45:45.181Z,83.52
2018-02-23T00:46:45.159Z,83.43
2018-02-23T00:47:45.138Z,83.62
2018-02-23T00:48:45.119Z,84.09
2018-02-23T00:49:45.101Z,84.09
2018-02-23T00:50:45.072Z,84.19
2018-02-23T00:51:45.047Z,83.90
2018-02-23T00:52:45.020Z,83.33
2018-02-23T00:53:44.999Z,83.81
2018-02-23T00:54:44.980Z,83.62
2018-02-23T00:55:44.959Z,83.24
2018-02-23T00:56:44.931Z,83.52
2018-02-23T00:57:44.903Z,83.24
2018-02-23T00:58:44.878Z,83.43
2018-02-23T00:59:44.856Z,83.90
2018-02-23T01:00:44.837Z,83.90
2018-02-23T01:01:44.819Z,83.24
2018-02-23T01:02:44.788Z,83.33
2018-02-23T01:03:44.767Z,83.24
2018-02-23T01:04:44.743Z,83.43
2018-02-23T01:05:44.718Z,83.43
2018-02-23T01:06:44.699Z,83.24
2018-02-23T01:07:44.674Z,83.90
2018-02-23T01:08:44.657Z,83.90
2018-02-23T01:09:44.631Z,83.81
2018-02-23T01:10:44.604Z,83.90
2018-02-23T01:11:44.632Z,84.09
2018-02-23T01:12:44.557Z,84.19
2018-02-23T01:13:44.541Z,83.90
2018-02-23T01:14:44.519Z,83.90
2018-02-23T01:15:44.493Z,83.81
2018-02-23T01:16:44.466Z,83.81
2018-02-23T01:17:44.448Z,84.00
2018-02-23T01:18:44.422Z,83.81
2018-02-23T01:19:44.409Z,84.38
2018-02-23T01:20:44.380Z,84.75
2018-02-23T01:21:44.390Z,84.66
2018-02-23T01:22:44.332Z,84.38
2018-02-23T01:23:44.304Z,84.09
2018-02-23T01:24:44.285Z,83.90
2018-02-23T01:25:44.259Z,84.00
2018-02-23T01:26:44.232Z,83.71
2018-02-23T01:27:44.224Z,84.38
2018-02-23T01:28:44.200Z,84.66
2018-02-23T01:29:44.175Z,84.75
2018-02-23T01:30:44.150Z,84.47
2018-02-23T01:31:44.138Z,84.56
2018-02-23T01:32:44.102Z,84.38
2018-02-23T01:33:44.076Z,84.38
2018-02-23T01:34:44.050Z,84.56
2018-02-23T01:35:44.035Z,84.56
2018-02-23T01:36:44.006Z,84.38
2018-02-23T01:37:43.979Z,84.56
2018-02-23T01:38:43.957Z,84.56
2018-02-23T01:39:43.933Z,84.85
2018-02-23T01:40:43.913Z,84.94
2018-02-23T01:41:43.890Z,84.38
2018-02-23T01:42:43.870Z,84.47
2018-02-23T01:43:43.846Z,84.19
2018-02-23T01:44:43.820Z,84.56
2018-02-23T01:45:43.800Z,84.56
2018-02-23T01:46:43.776Z,84.56
2018-02-23T01:47:43.766Z,84.56
2018-02-23T01:48:43.725Z,84.66
2018-02-23T01:49:43.710Z,85.23
2018-02-23T01:50:43.680Z,85.32
2018-02-23T01:51:43.659Z,85.32
2018-02-23T01:52:43.640Z,85.42
2018-02-23T01:53:43.609Z,85.51
2018-02-23T01:54:43.605Z,85.42
2018-02-23T01:55:43.574Z,85.42
2018-02-23T01:56:43.549Z,85.51
2018-02-23T01:57:43.520Z,85.70
2018-02-23T01:58:43.496Z,85.70
2018-02-23T01:59:43.471Z,85.61
2018-02-23T02:00:43.451Z,85.61
2018-02-23T02:01:43.428Z,85.42
2018-02-23T02:02:43.410Z,85.04
2018-02-23T02:03:43.380Z,85.23
2018-02-23T02:04:43.361Z,85.32
2018-02-23T02:05:43.339Z,85.04
2018-02-23T02:06:43.314Z,85.04
2018-02-23T02:07:43.288Z,85.23
2018-02-23T02:08:43.272Z,84.56
2018-02-23T02:09:43.245Z,84.75
2018-02-23T02:10:43.221Z,84.66
2018-02-23T02:11:43.197Z,84.66
2018-02-23T02:12:43.171Z,84.38
2018-02-23T02:13:43.151Z,85.80
2018-02-23T02:14:43.128Z,85.61
2018-02-23T02:15:43.112Z,85.61
2018-02-23T02:16:43.084Z,85.51
2018-02-23T02:17:43.061Z,85.42
2018-02-23T02:18:43.043Z,86.18
2018-02-23T02:19:43.023Z,86.18
2018-02-23T02:20:42.994Z,86.18
2018-02-23T02:21:42.969Z,86.08
2018-02-23T02:22:42.941Z,85.80
2018-02-23T02:23:42.917Z,86.18
2018-02-23T02:24:42.949Z,86.46
2018-02-23T02:25:42.870Z,86.83
2018-02-23T02:26:42.847Z,87.12
2018-02-23T02:27:42.826Z,86.98
2018-02-23T02:28:42.801Z,87.27
2018-02-23T02:29:42.775Z,87.93
2018-02-23T02:30:42.756Z,87.84
2018-02-23T02:31:42.746Z,87.46
2018-02-23T02:32:42.764Z,87.84
2018-02-23T02:33:42.693Z,87.93
2018-02-23T02:34:42.664Z,87.93
2018-02-23T02:35:42.636Z,87.93
2018-02-23T02:36:42.668Z,88.21
2018-02-23T02:37:42.591Z,88.49
2018-02-23T02:38:42.572Z,88.68
2018-02-23T02:39:42.552Z,88.21
2018-02-23T02:40:42.535Z,88.40
2018-02-23T02:41:42.499Z,88.49
2018-02-23T02:42:42.472Z,88.26
2018-02-23T02:43:42.452Z,88.17
2018-02-23T02:44:42.480Z,87.78
2018-02-23T02:45:42.402Z,87.88
2018-02-23T02:46:42.412Z,87.78
2018-02-23T02:47:42.357Z,87.69
2018-02-23T02:48:42.431Z,87.88
2018-02-23T02:49:42.310Z,87.69
2018-02-23T02:50:42.284Z,87.88
2018-02-23T02:51:42.266Z,87.12
2018-02-23T02:52:42.288Z,86.74
2018-02-23T02:53:42.218Z,87.50
2018-02-23T02:54:42.393Z,87.98
2018-02-23T02:55:42.171Z,87.59
2018-02-23T02:56:42.240Z,87.78
2018-02-23T02:57:42.122Z,88.07
2018-02-23T02:58:42.105Z,88.07
2018-02-23T02:59:42.074Z,87.50
2018-02-23T03:00:42.049Z,87.46
2018-02-23T03:01:42.029Z,88.17
2018-02-23T03:02:42.010Z,88.12
2018-02-23T03:03:42.000Z,88.31
2018-02-23T03:04:41.960Z,88.59
2018-02-23T03:05:41.941Z,88.68
2018-02-23T03:06:41.913Z,88.40
2018-02-23T03:07:41.890Z,88.78
2018-02-23T03:08:41.871Z,88.12
2018-02-23T03:09:41.843Z,88.21
2018-02-23T03:10:41.821Z,88.31
2018-02-23T03:11:41.791Z,88.78
2018-02-23T03:12:41.770Z,88.21
2018-02-23T03:13:41.748Z,88.31
2018-02-23T03:14:41.726Z,88.59
2018-02-23T03:15:41.698Z,88.87
2018-02-23T03:16:41.678Z,88.87
2018-02-23T03:17:41.654Z,88.68
2018-02-23T03:18:41.625Z,88.87
2018-02-23T03:19:41.610Z,88.97
2018-02-23T03:20:41.579Z,88.68
2018-02-23T03:21:41.559Z,88.68
2018-02-23T03:22:41.533Z,88.31
2018-02-23T03:23:41.510Z,88.59
2018-02-23T03:24:41.489Z,88.68
2018-02-23T03:25:41.464Z,88.31
2018-02-23T03:26:41.439Z,88.73
2018-02-23T03:27:41.419Z,88.35
2018-02-23T03:28:41.398Z,88.07
2018-02-23T03:29:41.371Z,87.50
2018-02-23T03:30:41.344Z,87.50
2018-02-23T03:31:41.321Z,87.78
2018-02-23T03:32:41.299Z,87.69
2018-02-23T03:33:41.276Z,87.69
2018-02-23T03:34:41.247Z,87.78
2018-02-23T03:35:41.227Z,87.69
2018-02-23T03:36:41.209Z,87.98
2018-02-23T03:37:41.182Z,88.17
2018-02-23T03:38:41.161Z,88.59
2018-02-23T03:39:41.143Z,88.12
2018-02-23T03:40:41.110Z,88.21
2018-02-23T03:41:41.092Z,88.87
2018-02-23T03:42:41.069Z,88.40
2018-02-23T03:43:41.037Z,89.06
2018-02-23T03:44:41.017Z,88.49
2018-02-23T03:45:40.989Z,88.87
2018-02-23T03:46:40.971Z,89.63
2018-02-23T03:47:40.950Z,89.44
2018-02-23T03:48:40.922Z,89.44
2018-02-23T03:49:40.901Z,89.63
2018-02-23T03:50:40.874Z,89.44
2018-02-23T03:51:40.851Z,89.92
2018-02-23T03:52:40.826Z,90.11
2018-02-23T03:53:40.804Z,89.69
2018-02-23T03:54:40.782Z,90.63
2018-02-23T03:55:40.763Z,90.58
2018-02-23T03:56:40.783Z,90.20
2018-02-23T03:57:40.713Z,89.63
2018-02-23T03:58:40.687Z,90.11
2018-02-23T03:59:40.659Z,89.92
2018-02-23T04:00:40.641Z,90.01
2018-02-23T04:01:40.612Z,89.35
2018-02-23T04:02:40.591Z,90.01
2018-02-23T04:03:40.569Z,89.63
2018-02-23T04:04:40.543Z,89.44
2018-02-23T04:05:40.525Z,89.44
2018-02-23T04:06:40.491Z,90.30
2018-02-23T04:07:40.466Z,90.01
2018-02-23T04:08:40.446Z,89.92
2018-02-23T04:09:40.421Z,90.01
2018-02-23T04:10:40.400Z,89.06
2018-02-23T04:11:40.381Z,89.73
2018-02-23T04:12:40.351Z,89.25
2018-02-23T04:13:40.327Z,89.73
2018-02-23T04:14:40.301Z,89.63
2018-02-23T04:15:40.282Z,89.63
2018-02-23T04:16:40.261Z,89.25
2018-02-23T04:17:40.231Z,89.63
2018-02-23T04:18:40.206Z,89.16
2018-02-23T04:19:40.181Z,89.25
2018-02-23T04:20:40.165Z,89.54
2018-02-23T04:21:40.138Z,89.44
2018-02-23T04:22:40.111Z,90.01
2018-02-23T04:23:40.090Z,89.92
2018-02-23T04:24:40.069Z,89.92
2018-02-23T04:25:40.041Z,90.20
2018-02-23T04:26:40.015Z,89.35
2018-02-23T04:27:39.990Z,89.73
2018-02-23T04:28:39.978Z,90.01
2018-02-23T04:29:39.945Z,89.54
2018-02-23T04:30:39.918Z,90.11
2018-02-23T04:31:39.901Z,89.73
2018-02-23T04:32:39.874Z,89.35
2018-02-23T04:33:39.850Z,90.01
2018-02-23T04:34:39.831Z,89.35
2018-02-23T04:35:39.798Z,89.73
2018-02-23T04:36:39.779Z,89.25
2018-02-23T04:37:39.751Z,89.25
2018-02-23T04:38:39.731Z,89.06
2018-02-23T04:39:39.716Z,89.25
2018-02-23T04:40:39.686Z,89.06
2018-02-23T04:41:39.670Z,89.16
2018-02-23T04:42:39.638Z,89.16
2018-02-23T04:43:39.609Z,88.97
2018-02-23T04:44:39.589Z,89.44
2018-02-23T04:45:39.616Z,89.44
2018-02-23T04:46:39.541Z,89.54
2018-02-23T04:47:39.517Z,89.78
2018-02-23T04:48:39.489Z,90.16
2018-02-23T04:49:39.469Z,89.59
2018-02-23T04:50:39.441Z,89.50
2018-02-23T04:51:39.491Z,90.16
2018-02-23T04:52:39.396Z,91.29
2018-02-23T04:53:39.377Z,91.01
2018-02-23T04:54:39.347Z,90.91
2018-02-23T04:55:39.329Z,90.91
2018-02-23T04:56:39.302Z,91.29
2018-02-23T04:57:39.282Z,90.34
2018-02-23T04:58:39.250Z,91.29
2018-02-23T04:59:39.241Z,90.25
2018-02-23T05:00:39.204Z,90.53
2018-02-23T05:01:39.187Z,90.34
2018-02-23T05:02:39.158Z,90.63
2018-02-23T05:03:39.129Z,90.44
2018-02-23T05:04:39.107Z,90.44
2018-02-23T05:05:39.090Z,90.44
2018-02-23T05:06:39.064Z,90.16
2018-02-23T05:07:39.031Z,90.16
2018-02-23T05:08:39.008Z,90.25
2018-02-23T05:09:38.989Z,90.25
2018-02-23T05:10:38.964Z,90.82
2018-02-23T05:11:38.936Z,90.34
2018-02-23T05:12:38.911Z,90.34
2018-02-23T05:13:38.889Z,90.16
2018-02-23T05:14:38.881Z,90.82
2018-02-23T05:15:38.838Z,90.53
2018-02-23T05:16:38.819Z,90.44
2018-02-23T05:17:38.799Z,90.34
2018-02-23T05:18:38.775Z,90.44
2018-02-23T05:19:38.745Z,90.44
2018-02-23T05:20:38.718Z,90.53
2018-02-23T05:21:38.691Z,90.72
2018-02-23T05:22:38.669Z,90.72
2018-02-23T05:23:38.650Z,90.53
2018-02-23T05:24:38.627Z,90.53
2018-02-23T05:25:38.597Z,90.53
2018-02-23T05:26:38.579Z,90.53
2018-02-23T05:27:38.548Z,90.53
2018-02-23T05:28:38.523Z,90.53
2018-02-23T05:29:38.500Z,90.44
2018-02-23T05:30:38.484Z,90.53
2018-02-23T05:31:38.451Z,90.53
2018-02-23T05:32:38.427Z,90.53
2018-02-23T05:33:38.404Z,90.82
2018-02-23T05:34:38.380Z,90.53
2018-02-23T05:35:38.359Z,90.72
2018-02-23T05:36:38.331Z,90.34
2018-02-23T05:37:38.311Z,90.44
2018-02-23T05:38:38.280Z,90.44
2018-02-23T05:39:38.263Z,90.34
2018-02-23T05:40:38.234Z,90.63
2018-02-23T05:41:38.216Z,90.25
2018-02-23T05:42:38.235Z,90.63
2018-02-23T05:43:38.161Z,90.44
2018-02-23T05:44:38.138Z,90.63
2018-02-23T05:45:38.110Z,90.44
2018-02-23T05:46:38.089Z,90.44
2018-02-23T05:47:38.064Z,90.44
2018-02-23T05:48:38.042Z,90.44
2018-02-23T05:49:38.022Z,90.06
2018-02-23T05:50:37.984Z,90.44
2018-02-23T05:51:37.961Z,89.87
2018-02-23T05:52:37.942Z,89.50
2018-02-23T05:53:37.922Z,89.78
2018-02-23T05:54:37.941Z,89.87
2018-02-23T05:55:37.866Z,89.78
2018-02-23T05:56:37.840Z,89.59
2018-02-23T05:57:37.820Z,90.44
2018-02-23T05:58:37.793Z,89.78
2018-02-23T05:59:37.783Z,89.31
2018-02-23T06:00:37.746Z,89.78
2018-02-23T06:01:37.719Z,90.72
2018-02-23T06:02:37.749Z,90.06
2018-02-23T06:03:37.668Z,89.59
2018-02-23T06:04:37.749Z,89.69
2018-02-23T06:05:37.621Z,89.59
2018-02-23T06:06:37.624Z,89.59
2018-02-23T06:07:37.574Z,89.50
2018-02-23T06:08:37.562Z,89.97
2018-02-23T06:09:37.522Z,89.21
2018-02-23T06:10:37.501Z,89.21
2018-02-23T06:11:37.477Z,89.40
2018-02-23T06:12:37.500Z,89.21
2018-02-23T06:13:37.428Z,89.12
2018-02-23T06:14:37.401Z,89.12
2018-02-23T06:15:37.383Z,89.02
2018-02-23T06:16:37.358Z,88.64
2018-02-23T06:17:37.329Z,89.02
2018-02-23T06:18:37.417Z,89.50
2018-02-23T06:19:37.278Z,88.74
2018-02-23T06:20:37.257Z,88.36
2018-02-23T06:21:37.233Z,88.64
2018-02-23T06:22:37.206Z,88.64
2018-02-23T06:23:37.185Z,88.55
2018-02-23T06:24:37.163Z,88.83
2018-02-23T06:25:37.139Z,88.74
2018-02-23T06:26:37.211Z,88.74
2018-02-23T06:27:37.090Z,88.74
2018-02-23T06:28:37.062Z,88.64
2018-02-23T06:29:37.034Z,88.36
2018-02-23T06:30:37.014Z,88.07
2018-02-23T06:31:36.989Z,87.98
2018-02-23T06:32:36.966Z,87.88
2018-02-23T06:33:36.938Z,87.70
2018-02-23T06:34:36.911Z,87.60
2018-02-23T06:35:36.892Z,87.60
2018-02-23T06:36:36.863Z,87.79
2018-02-23T06:37:36.844Z,87.88
2018-02-23T06:38:36.817Z,87.04
2018-02-23T06:39:36.792Z,86.85
2018-02-23T06:40:36.772Z,87.04
2018-02-23T06:41:36.755Z,87.32
2018-02-23T06:42:36.718Z,87.04
2018-02-23T06:43:36.696Z,87.23
2018-02-23T06:44:36.668Z,87.98
2018-02-23T06:45:36.649Z,87.88
2018-02-23T06:46:36.623Z,87.79
2018-02-23T06:47:36.597Z,87.70
2018-02-23T06:48:36.577Z,86.94
2018-02-23T06:49:36.549Z,87.04
2018-02-23T06:50:36.529Z,86.85
2018-02-23T06:51:36.505Z,86.94
2018-02-23T06:52:36.480Z,86.85
2018-02-23T06:53:36.455Z,87.13
2018-02-23T06:54:36.434Z,86.56
2018-02-23T06:55:36.412Z,86.56
2018-02-23T06:56:36.379Z,86.32
2018-02-23T06:57:36.358Z,85.57
2018-02-23T06:58:36.332Z,85.28
2018-02-23T06:59:36.308Z,84.61
2018-02-23T07:00:36.289Z,83.71
2018-02-23T07:01:36.268Z,83.71
2018-02-23T07:02:36.244Z,82.39
2018-02-23T07:03:36.220Z,81.92
2018-02-23T07:04:36.199Z,81.38
2018-02-23T07:05:36.178Z,80.72
2018-02-23T07:06:36.158Z,80.34
2018-02-23T07:07:36.133Z,79.11
2018-02-23T07:08:36.123Z,79.39
2018-02-23T07:09:36.095Z,78.49
2018-02-23T07:10:36.080Z,78.77
2018-02-23T07:11:36.064Z,77.83
2018-02-23T07:12:36.036Z,77.73
2018-02-23T07:13:36.015Z,76.78
2018-02-23T07:14:35.996Z,76.63
2018-02-23T07:15:35.984Z,75.40
2018-02-23T07:16:35.960Z,73.97
2018-02-23T07:17:35.936Z,74.13
2018-02-23T07:18:35.928Z,73.97
2018-02-23T07:19:35.908Z,73.88
2018-02-23T07:20:35.892Z,72.64
2018-02-23T07:21:35.869Z,70.88
2018-02-23T07:22:35.848Z,68.98
2018-02-23T07:23:35.832Z,67.08
2018-02-23T07:24:35.819Z,65.69
2018-02-23T07:25:35.797Z,64.65
2018-02-23T07:26:35.790Z,62.85
2018-02-23T07:27:35.765Z,61.52
2018-02-23T07:28:35.754Z,61.14
2018-02-23T07:29:35.742Z,60.19
2018-02-23T07:30:35.718Z,60.38
2018-02-23T07:31:35.702Z,59.93
2018-02-23T07:32:35.688Z,58.51
2018-02-23T07:33:35.686Z,57.97
2018-02-23T07:34:35.674Z,56.32
2018-02-23T07:35:35.648Z,56.32
2018-02-23T07:36:35.637Z,56.51
2018-02-23T07:37:35.628Z,56.35
2018-02-23T07:38:35.608Z,55.40
2018-02-23T07:39:35.599Z,54.61
2018-02-23T07:40:35.576Z,54.90
2018-02-23T07:41:35.567Z,55.50
2018-02-23T07:42:35.560Z,54.48
2018-02-23T07:43:35.545Z,53.65
2018-02-23T07:44:35.529Z,51.65
2018-02-23T07:45:35.519Z,50.25
2018-02-23T07:46:35.504Z,49.27
2018-02-23T07:47:35.501Z,48.90
2018-02-23T07:48:35.489Z,47.97
2018-02-23T07:49:35.469Z,47.58
2018-02-23T07:50:35.458Z,48.13
2018-02-23T07:51:35.449Z,48.87
2018-02-23T07:52:35.446Z,47.94
2018-02-23T07:53:35.429Z,47.20
2018-02-23T07:54:35.432Z,46.51
2018-02-23T07:55:35.408Z,47.37
2018-02-23T07:56:35.399Z,46.37
2018-02-23T07:57:35.391Z,47.61
2018-02-23T07:58:35.375Z,48.01
2018-02-23T07:59:35.364Z,47.34
2018-02-23T08:00:35.360Z,45.75
2018-02-23T08:01:35.346Z,45.64
2018-02-23T08:02:35.339Z,44.87
2018-02-23T08:03:35.329Z,44.78
2018-02-23T08:04:35.318Z,45.09
2018-02-23T08:05:35.312Z,44.33
2018-02-23T08:06:35.291Z,43.78
2018-02-23T08:07:35.282Z,42.76
2018-02-23T08:08:35.281Z,41.44
2018-02-23T08:09:35.263Z,40.35
2018-02-23T08:10:35.254Z,40.14
2018-02-23T08:11:35.251Z,40.88
2018-02-23T08:12:35.240Z,41.74
2018-02-23T08:13:35.228Z,42.40
2018-02-23T08:14:35.225Z,41.69
2018-02-23T08:15:35.218Z,40.22
2018-02-23T08:16:35.201Z,40.98
2018-02-23T08:17:35.198Z,40.62
2018-02-23T08:18:35.188Z,40.33
2018-02-23T08:19:35.178Z,40.41
2018-02-23T08:20:35.171Z,40.14
2018-02-23T08:21:35.157Z,40.06
2018-02-23T08:22:35.148Z,39.50
2018-02-23T08:23:35.142Z,38.35
2018-02-23T08:24:35.143Z,38.53
2018-02-23T08:25:35.129Z,39.59
2018-02-23T08:26:35.118Z,43.36
2018-02-23T08:27:35.110Z,45.76
2018-02-23T08:28:35.098Z,45.45
2018-02-23T08:29:35.087Z,46.83
2018-02-23T08:30:35.078Z,49.84
2018-02-23T08:31:35.058Z,52.18
2018-02-23T08:32:35.054Z,53.69
2018-02-23T08:33:35.037Z,55.40
2018-02-23T08:34:35.019Z,56.63
2018-02-23T08:35:35.001Z,57.39
2018-02-23T08:36:34.988Z,57.48
2018-02-23T08:37:34.974Z,57.48
2018-02-23T08:38:34.961Z,58.40
2018-02-23T08:39:34.943Z,59.06
2018-02-23T08:40:34.922Z,59.63
2018-02-23T08:41:34.905Z,59.56
2018-02-23T08:42:34.889Z,59.38
2018-02-23T08:43:34.877Z,58.24
2018-02-23T08:44:34.851Z,58.14
2018-02-23T08:45:34.839Z,58.43
2018-02-23T08:46:34.818Z,58.14
2018-02-23T08:47:34.795Z,58.71
2018-02-23T08:48:34.777Z,58.43
2018-02-23T08:49:34.756Z,58.71
2018-02-23T08:50:34.738Z,58.43
2018-02-23T08:51:34.720Z,58.71
2018-02-23T08:52:34.700Z,59.38
2018-02-23T08:53:34.681Z,59.09
2018-02-23T08:54:34.659Z,59.38
2018-02-23T08:55:34.640Z,59.47
2018-02-23T08:56:34.615Z,60.19
2018-02-23T08:57:34.599Z,60.19
2018-02-23T08:58:34.578Z,61.08
2018-02-23T08:59:34.557Z,60.61
2018-02-23T09:00:34.537Z,60.80
2018-02-23T09:01:34.519Z,60.61
2018-02-23T09:02:34.499Z,60.13
2018-02-23T09:03:34.477Z,59.75
2018-02-23T09:04:34.451Z,59.84
2018-02-23T09:05:34.434Z,59.75
2018-02-23T09:06:34.413Z,60.22
2018-02-23T09:07:34.389Z,60.89
2018-02-23T09:08:34.371Z,59.66
2018-02-23T09:09:34.349Z,59.22
2018-02-23T09:10:34.330Z,57.98
2018-02-23T09:11:34.308Z,58.36
2018-02-23T09:12:34.343Z,56.85
2018-02-23T09:13:34.270Z,56.27
2018-02-23T09:14:34.249Z,55.80
2018-02-23T09:15:34.228Z,55.62
2018-02-23T09:16:34.202Z,54.25
2018-02-23T09:17:34.189Z,53.27
2018-02-23T09:18:34.163Z,53.65
2018-02-23T09:19:34.149Z,53.18
2018-02-23T09:20:34.120Z,52.06
2018-02-23T09:21:34.103Z,50.70
2018-02-23T09:22:34.089Z,48.13
2018-02-23T09:23:34.067Z,47.47
2018-02-23T09:24:34.058Z,47.92
2018-02-23T09:25:34.031Z,48.16
2018-02-23T09:26:34.009Z,46.69
2018-02-23T09:27:33.991Z,48.20
2018-02-23T09:28:33.975Z,48.11
2018-02-23T09:29:33.965Z,48.39
2018-02-23T09:30:33.940Z,48.58
2018-02-23T09:31:33.919Z,48.11
2018-02-23T09:32:33.900Z,47.92
2018-02-23T09:33:33.888Z,48.84
2018-02-23T09:34:33.866Z,50.45
2018-02-23T09:35:33.849Z,51.40
2018-02-23T09:36:33.830Z,51.68
2018-02-23T09:37:33.821Z,50.93
2018-02-23T09:38:33.795Z,50.86
2018-02-23T09:39:33.789Z,49.08
2018-02-23T09:40:33.760Z,48.01
2018-02-23T09:41:33.748Z,47.75
2018-02-23T09:42:33.721Z,48.11
2018-02-23T09:43:33.709Z,47.56
2018-02-23T09:44:33.692Z,46.94
2018-02-23T09:45:33.673Z,45.50
2018-02-23T09:46:33.650Z,45.97
2018-02-23T09:47:33.641Z,45.76
2018-02-23T09:48:33.624Z,46.61
2018-02-23T09:49:33.605Z,46.45
2018-02-23T09:50:33.582Z,46.01
2018-02-23T09:51:33.571Z,45.21
2018-02-23T09:52:33.554Z,45.52
2018-02-23T09:53:33.544Z,43.90
2018-02-23T09:54:33.511Z,43.73
2018-02-23T09:55:33.490Z,41.78
2018-02-23T09:56:33.479Z,40.28
2018-02-23T09:57:33.459Z,40.22
2018-02-23T09:58:33.448Z,39.57
2018-02-23T09:59:33.432Z,39.78
2018-02-23T10:00:33.415Z,38.83
2018-02-23T10:01:33.409Z,39.36
2018-02-23T10:02:33.382Z,39.38
2018-02-23T10:03:33.367Z,39.04
2018-02-23T10:04:33.349Z,38.43
2018-02-23T10:05:33.341Z,38.78
2018-02-23T10:06:33.322Z,37.23
2018-02-23T10:07:33.308Z,37.52
2018-02-23T10:08:33.296Z,35.93
2018-02-23T10:09:33.272Z,34.98
2018-02-23T10:10:33.286Z,34.01
2018-02-23T10:11:33.255Z,34.12
2018-02-23T10:12:33.243Z,33.36
2018-02-23T10:13:33.217Z,33.64
2018-02-23T10:14:33.206Z,33.07
2018-02-23T10:15:33.193Z,34.30
2018-02-23T10:16:33.182Z,34.58
2018-02-23T10:17:33.169Z,34.31
2018-02-23T10:18:33.160Z,33.85
2018-02-23T10:19:33.143Z,33.37
2018-02-23T10:20:33.141Z,32.63
2018-02-23T10:21:33.119Z,31.48
2018-02-23T10:22:33.104Z,31.58
2018-02-23T10:23:33.105Z,31.10
2018-02-23T10:24:33.080Z,31.20
2018-02-23T10:25:33.173Z,30.45
2018-02-23T10:26:33.054Z,30.18
2018-02-23T10:27:33.133Z,29.70
2018-02-23T10:28:33.032Z,28.94
2018-02-23T10:29:33.087Z,28.28
2018-02-23T10:30:33.008Z,27.97
2018-02-23T10:31:32.998Z,28.06
2018-02-23T10:32:32.988Z,29.37
2018-02-23T10:33:33.081Z,29.85
2018-02-23T10:34:32.962Z,29.56
2018-02-23T10:35:33.049Z,30.13
2018-02-23T10:36:32.937Z,30.53
2018-02-23T10:37:32.984Z,29.56
2018-02-23T10:38:32.915Z,29.96
2018-02-23T10:39:32.952Z,29.77
2018-02-23T10:40:32.889Z,29.58
2018-02-23T10:41:32.927Z,29.74
2018-02-23T10:42:32.877Z,30.96
2018-02-23T10:43:32.851Z,31.04
2018-02-23T10:44:32.841Z,32.58
2018-02-23T10:45:32.828Z,32.88
2018-02-23T10:46:32.812Z,32.03
2018-02-23T10:47:32.850Z,31.64
2018-02-23T10:48:32.789Z,31.18
2018-02-23T10:49:32.788Z,30.61
2018-02-23T10:50:32.760Z,30.43
2018-02-23T10:51:32.748Z,29.19
2018-02-23T10:52:32.743Z,29.10
2018-02-23T10:53:32.726Z,28.91
2018-02-23T10:54:32.714Z,28.54
2018-02-23T10:55:32.699Z,28.16
2018-02-23T10:56:32.688Z,27.78
2018-02-23T10:57:32.674Z,27.66
2018-02-23T10:58:32.663Z,28.12
2018-02-23T10:59:32.647Z,28.88
2018-02-23T11:00:32.634Z,29.44
2018-02-23T11:01:32.623Z,29.82
2018-02-23T11:02:32.607Z,30.39
2018-02-23T11:03:32.603Z,30.47
2018-02-23T11:04:32.589Z,31.12
2018-02-23T11:05:32.572Z,32.55
2018-02-23T11:06:32.557Z,32.45
2018-02-23T11:07:32.549Z,32.83
2018-02-23T11:08:32.529Z,33.04
2018-02-23T11:09:32.515Z,32.83
2018-02-23T11:10:32.507Z,33.12
2018-02-23T11:11:32.499Z,33.42
2018-02-23T11:12:32.496Z,32.87
2018-02-23T11:13:32.474Z,32.48
2018-02-23T11:14:32.451Z,31.63
2018-02-23T11:15:32.435Z,31.53
2018-02-23T11:16:32.421Z,32.01
2018-02-23T11:17:32.426Z,31.93
2018-02-23T11:18:32.416Z,31.63
2018-02-23T11:19:32.375Z,32.96
2018-02-23T11:20:32.370Z,32.58
2018-02-23T11:21:32.352Z,32.87
2018-02-23T11:22:32.336Z,33.17
2018-02-23T11:23:32.328Z,32.87
2018-02-23T11:24:32.317Z,32.85
2018-02-23T11:25:32.296Z,32.77
2018-02-23T11:26:32.283Z,33.04
2018-02-23T11:27:32.269Z,33.06
2018-02-23T11:28:32.257Z,33.23
2018-02-23T11:29:32.238Z,33.51
2018-02-23T11:30:32.228Z,33.50
2018-02-23T11:31:32.262Z,33.80
2018-02-23T11:32:32.211Z,34.09
2018-02-23T11:33:32.186Z,33.51
2018-02-23T11:34:32.168Z,33.33
2018-02-23T11:35:32.170Z,33.70
2018-02-23T11:36:32.140Z,33.80
2018-02-23T11:37:32.130Z,33.51
2018-02-23T11:38:32.120Z,33.14
2018-02-23T11:39:32.101Z,33.10
2018-02-23T11:40:32.083Z,34.59
2018-02-23T11:41:32.075Z,36.32
2018-02-23T11:42:32.056Z,36.04
2018-02-23T11:43:32.039Z,35.94
2018-02-23T11:44:32.029Z,36.24
2018-02-23T11:45:32.009Z,36.05
2018-02-23T11:46:31.993Z,36.72
2018-02-23T11:47:31.980Z,36.07
2018-02-23T11:48:31.968Z,35.58
2018-02-23T11:49:31.960Z,35.46
2018-02-23T11:50:31.939Z,35.83
2018-02-23T11:51:31.919Z,37.37
2018-02-23T11:52:31.913Z,37.57
2018-02-23T11:53:31.891Z,36.74
2018-02-23T11:54:31.874Z,36.45
2018-02-23T11:55:31.862Z,35.97
2018-02-23T11:56:31.845Z,35.61
2018-02-23T11:57:31.829Z,34.56
2018-02-23T11:58:31.819Z,34.36
2018-02-23T11:59:31.810Z,34.72
2018-02-23T12:00:31.788Z,35.67
2018-02-23T12:01:31.768Z,36.04
2018-02-23T12:02:31.762Z,36.41
2018-02-23T12:03:31.744Z,37.65
2018-02-23T12:04:31.725Z,37.19
2018-02-23T12:05:31.718Z,37.00
2018-02-23T12:06:31.695Z,36.05
2018-02-23T12:07:31.674Z,36.33
2018-02-23T12:08:31.711Z,36.07
2018-02-23T12:09:31.642Z,35.97
2018-02-23T12:10:31.628Z,36.07
2018-02-23T12:11:31.613Z,35.78
2018-02-23T12:12:31.598Z,35.89
2018-02-23T12:13:31.587Z,35.78
2018-02-23T12:14:31.669Z,35.60
2018-02-23T12:15:31.548Z,35.60
2018-02-23T12:16:31.555Z,35.88
2018-02-23T12:17:31.517Z,35.88
2018-02-23T12:18:31.606Z,35.88
2018-02-23T12:19:31.486Z,36.04
2018-02-23T12:20:31.528Z,36.22
2018-02-23T12:21:31.468Z,36.68
2018-02-23T12:22:31.462Z,37.54
2018-02-23T12:23:31.423Z,38.70
2018-02-23T12:24:31.410Z,37.67
2018-02-23T12:25:31.390Z,37.10
2018-02-23T12:26:31.423Z,36.33
2018-02-23T12:27:31.363Z,36.15
2018-02-23T12:28:31.395Z,36.62
2018-02-23T12:29:31.331Z,36.53
2018-02-23T12:30:31.360Z,36.15
2018-02-23T12:31:31.299Z,36.05
2018-02-23T12:32:31.281Z,36.32
2018-02-23T12:33:31.266Z,36.79
2018-02-23T12:34:31.247Z,37.42
2018-02-23T12:35:31.231Z,38.58
2018-02-23T12:36:31.225Z,38.39
2018-02-23T12:37:31.201Z,37.63
2018-02-23T12:38:31.241Z,37.92
2018-02-23T12:39:31.166Z,38.58
2018-02-23T12:40:31.152Z,37.93
2018-02-23T12:41:31.138Z,37.37
2018-02-23T12:42:31.119Z,37.08
2018-02-23T12:43:31.100Z,36.58
2018-02-23T12:44:31.094Z,36.89
2018-02-23T12:45:31.081Z,36.98
2018-02-23T12:46:31.104Z,36.51
2018-02-23T12:47:31.041Z,36.77
2018-02-23T12:48:31.033Z,37.84
2018-02-23T12:49:31.010Z,37.08
2018-02-23T12:50:30.989Z,37.29
2018-02-23T12:51:30.971Z,36.15
2018-02-23T12:52:30.956Z,36.33